Marina Lobra — IXVN — position and weather

sailwx.info

Track history (hours):
 
Tides and Currents Weather Stations Pressure Air Temp Water Temp Dewpoint Dewpoint Depression Visibility Wind Speed Wind Dir Waves Ship Positions

Marina Lobra

Last reported at 2014-Sep-15 13:23 UTC. Time now 2014-Sep-17 05:36 UTC.
Position N 40°50' E 014°15'.

Length 56 m; draft 2.4 m.

Type: Ship (hazmat cat C). MMSI: 247188300.

Date/timePositionNaut miles runAvg speedWind from/ knotsBaromVisibWave heightAir tempDewpointWater temp
2014-Sep-15 13:23N 40°50' E 014°15'0 0.0
2014-Sep-15 12:09N 40°50' E 014°15'1 0.8
2014-Sep-15 11:16N 40°50' E 014°16'1 1.0
2014-Sep-15 10:32N 40°50' E 014°17'0 0.0
2014-Sep-15 09:33N 40°50' E 014°17'0 0.0
2014-Sep-15 06:33N 40°50' E 014°17'  
2014-Sep-12 06:24N 40°50' E 014°16'4 5.1
2014-Sep-12 05:33N 40°46' E 014°18'6 5.8
2014-Sep-12 04:33N 40°40' E 014°17'6 5.8
2014-Sep-12 03:33N 40°35' E 014°15'1 1.5
2014-Sep-12 02:33N 40°33' E 014°14'0 0.0
2014-Sep-12 01:33N 40°33' E 014°14'0 0.0
2014-Sep-12 00:33N 40°33' E 014°14'0 0.0
2014-Sep-11 23:33N 40°33' E 014°14'0 0.0
2014-Sep-11 22:33N 40°33' E 014°14'0 0.0
2014-Sep-11 21:33N 40°33' E 014°14'0 0.0
2014-Sep-11 20:33N 40°33' E 014°14'0 0.0
2014-Sep-11 19:33N 40°33' E 014°14'4 4.1
2014-Sep-11 18:33N 40°37' E 014°16'6 5.5
2014-Sep-11 17:33N 40°43' E 014°17'6 5.5
2014-Sep-11 16:33N 40°48' E 014°18'2 2.0
2014-Sep-11 15:33N 40°50' E 014°17'0 0.0
2014-Sep-11 14:33N 40°50' E 014°17'0 0.0
2014-Sep-11 13:15N 40°50' E 014°17'0 0.0
2014-Sep-11 12:32N 40°50' E 014°17'1 0.0
2014-Sep-10 12:30N 40°50' E 014°16'1 1.0
2014-Sep-10 11:33N 40°50' E 014°17'0 0.0
2014-Sep-10 10:33N 40°50' E 014°17'1 0.7
2014-Sep-10 08:21N 40°50' E 014°15'1 0.0
2014-Sep-09 11:33N 40°50' E 014°17'0 0.0
2014-Sep-08 09:25N 40°50' E 014°17'0 0.0
2014-Sep-08 08:33N 40°50' E 014°17'  
Track history (hours):
 
Tides and Currents Weather Stations Pressure Air Temp Water Temp Dewpoint Dewpoint Depression Visibility Wind Speed Wind Dir Waves Ship Positions

Marina Lobra

Last reported at 2014-Sep-15 13:23 UTC. Time now 2014-Sep-17 05:36 UTC.
Position N 40°50' E 014°15'.

Length 56 m; draft 2.4 m.

Type: Ship (hazmat cat C). MMSI: 247188300.

Date/timePositionNaut miles runAvg speedWind from/ knotsBaromVisibWave heightAir tempDewpointWater temp
2014-Sep-15 13:23N 40°50' E 014°15'0 0.0
2014-Sep-15 12:09N 40°50' E 014°15'1 0.8
2014-Sep-15 11:16N 40°50' E 014°16'1 1.0
2014-Sep-15 10:32N 40°50' E 014°17'0 0.0
2014-Sep-15 09:33N 40°50' E 014°17'0 0.0
2014-Sep-15 06:33N 40°50' E 014°17'  
2014-Sep-12 06:24N 40°50' E 014°16'4 5.1
2014-Sep-12 05:33N 40°46' E 014°18'6 5.8
2014-Sep-12 04:33N 40°40' E 014°17'6 5.8
2014-Sep-12 03:33N 40°35' E 014°15'1 1.5
2014-Sep-12 02:33N 40°33' E 014°14'0 0.0
2014-Sep-12 01:33N 40°33' E 014°14'0 0.0
2014-Sep-12 00:33N 40°33' E 014°14'0 0.0
2014-Sep-11 23:33N 40°33' E 014°14'0 0.0
2014-Sep-11 22:33N 40°33' E 014°14'0 0.0
2014-Sep-11 21:33N 40°33' E 014°14'0 0.0
2014-Sep-11 20:33N 40°33' E 014°14'0 0.0
2014-Sep-11 19:33N 40°33' E 014°14'4 4.1
2014-Sep-11 18:33N 40°37' E 014°16'6 5.5
2014-Sep-11 17:33N 40°43' E 014°17'6 5.5
2014-Sep-11 16:33N 40°48' E 014°18'2 2.0
2014-Sep-11 15:33N 40°50' E 014°17'0 0.0
2014-Sep-11 14:33N 40°50' E 014°17'0 0.0
2014-Sep-11 13:15N 40°50' E 014°17'0 0.0
2014-Sep-11 12:32N 40°50' E 014°17'1 0.0
2014-Sep-10 12:30N 40°50' E 014°16'1 1.0
2014-Sep-10 11:33N 40°50' E 014°17'0 0.0
2014-Sep-10 10:33N 40°50' E 014°17'1 0.7
2014-Sep-10 08:21N 40°50' E 014°15'1 0.0
2014-Sep-09 11:33N 40°50' E 014°17'0 0.0
2014-Sep-08 09:25N 40°50' E 014°17'0 0.0
2014-Sep-08 08:33N 40°50' E 014°17'  

Dump ship's entire track history